Time;durP1;ratioP1;P1;durP2;ratioP2;P2;SDS_P1;SDS_P2;PMS_P1;PMS_P2;Temp;Humidity;BMP_temperature;BMP_pressure;BME280_temperature;BME280_humidity;BME280_pressure;Samples;Min_cycle;Max_cycle;Signal;HPM_P1;HPM_P2
2022/03/11 00:02:04;;;;;;;17.13;9.27;;;;;;;6.95;82.81;99565.75;4930810;29;20205;-79
2022/03/11 00:04:39;;;;;;;18.97;9.00;;;;;;;6.98;82.99;99570.03;4930329;29;20212;-79
2022/03/11 00:07:09;;;;;;;16.07;9.70;;;;;;;6.87;82.95;99571.34;4930982;29;20207;-79
2022/03/11 00:09:38;;;;;;;17.07;9.57;;;;;;;6.83;83.10;99569.75;4930450;29;20212;-79
2022/03/11 00:12:10;;;;;;;14.70;9.37;;;;;;;6.79;84.08;99568.19;4929075;29;20223;-79
2022/03/11 00:14:38;;;;;;;17.73;8.77;;;;;;;6.68;85.25;99561.66;4928386;29;20221;-79
2022/03/11 00:17:10;;;;;;;13.63;9.10;;;;;;;6.63;85.63;99567.09;4944615;28;20246;-79
2022/03/11 00:19:39;;;;;;;13.27;9.00;;;;;;;6.60;86.40;99565.44;5021556;28;20223;-79
2022/03/11 00:22:07;;;;;;;14.10;8.77;;;;;;;6.69;86.85;99566.00;5049641;28;20197;-79
2022/03/11 00:24:35;;;;;;;14.33;9.00;;;;;;;6.62;87.93;99556.63;5046936;28;20653;-79
2022/03/11 00:27:04;;;;;;;16.20;9.27;;;;;;;6.53;88.21;99552.59;5099767;27;20190;-80
2022/03/11 00:29:34;;;;;;;14.73;9.80;;;;;;;6.52;88.96;99559.63;5131707;27;20186;-79
2022/03/11 00:32:03;;;;;;;13.73;8.70;;;;;;;6.48;88.93;99555.44;5133668;27;20195;-79
2022/03/11 00:34:31;;;;;;;16.23;9.20;;;;;;;6.50;89.86;99555.38;5135239;27;20214;-80
2022/03/11 00:37:00;;;;;;;14.10;9.10;;;;;;;6.42;90.59;99558.31;5132708;27;20186;-79
2022/03/11 00:39:29;;;;;;;16.57;9.80;;;;;;;6.48;90.46;99557.22;5130165;27;20209;-79
2022/03/11 00:41:57;;;;;;;14.27;9.03;;;;;;;6.41;91.02;99556.59;5129238;27;20231;-79
2022/03/11 00:44:26;;;;;;;14.33;9.10;;;;;;;6.27;91.33;99556.28;5128789;27;20277;-79
2022/03/11 00:46:56;;;;;;;19.13;10.00;;;;;;;6.15;92.37;99554.16;5151828;27;20214;-79
2022/03/11 00:49:25;;;;;;;15.60;10.00;;;;;;;6.21;92.32;99556.53;5156722;27;20197;-79
2022/03/11 00:51:53;;;;;;;15.00;10.13;;;;;;;6.10;93.50;99556.97;5148361;27;20182;-79
2022/03/11 00:54:22;;;;;;;16.80;11.07;;;;;;;6.13;94.25;99554.22;5089809;28;20198;-79
2022/03/11 00:56:51;;;;;;;19.40;12.10;;;;;;;6.19;94.33;99555.75;5087796;28;20196;-79
2022/03/11 00:59:21;;;;;;;16.67;11.57;;;;;;;6.18;94.43;99552.28;5058495;28;20191;-79
2022/03/11 01:01:52;;;;;;;18.70;12.20;;;;;;;6.25;93.72;99543.19;5083036;28;20200;-79
2022/03/11 01:04:22;;;;;;;18.63;11.53;;;;;;;6.16;94.42;99547.97;5084981;28;20207;-79
2022/03/11 01:06:50;;;;;;;16.03;10.67;;;;;;;5.95;95.73;99539.16;5025955;28;20200;-79
2022/03/11 01:09:18;;;;;;;15.17;10.07;;;;;;;5.90;96.82;99543.72;5025170;28;20365;-79
2022/03/11 01:11:46;;;;;;;16.60;10.80;;;;;;;5.79;97.81;99536.25;5036836;28;20251;-79
2022/03/11 01:14:15;;;;;;;15.60;10.10;;;;;;;5.89;97.56;99542.00;5064729;28;20554;-79
2022/03/11 01:16:43;;;;;;;16.13;10.10;;;;;;;5.79;98.05;99543.25;5061939;28;20220;-79
2022/03/11 01:19:13;;;;;;;15.10;10.30;;;;;;;5.83;98.40;99532.56;5064377;28;20271;-79
2022/03/11 01:21:43;;;;;;;16.30;10.63;;;;;;;5.68;98.74;99534.00;5061831;28;20207;-79
2022/03/11 01:24:12;;;;;;;18.50;9.87;;;;;;;5.69;99.06;99533.13;5082004;27;20200;-79
2022/03/11 01:26:41;;;;;;;16.47;10.63;;;;;;;5.64;99.51;99537.69;5146503;27;20201;-80
2022/03/11 01:29:09;;;;;;;16.80;10.77;;;;;;;5.67;99.99;99532.28;5143758;27;20629;-79
2022/03/11 01:31:39;;;;;;;16.20;9.57;;;;;;;5.56;100.00;99533.63;5151354;27;20699;-79
2022/03/11 01:34:10;;;;;;;15.40;9.73;;;;;;;5.55;100.00;99532.75;5149846;27;20190;-79
2022/03/11 01:36:38;;;;;;;16.03;10.43;;;;;;;5.45;100.00;99528.78;5149436;27;20220;-79
2022/03/11 01:39:10;;;;;;;16.20;10.03;;;;;;;5.44;100.00;99524.44;5149630;27;20193;-79
2022/03/11 01:41:39;;;;;;;16.73;10.13;;;;;;;5.49;100.00;99525.09;5152123;27;20208;-79
2022/03/11 01:44:10;;;;;;;18.43;10.53;;;;;;;5.39;100.00;99515.84;5147727;27;20706;-79
2022/03/11 01:46:38;;;;;;;18.57;11.80;;;;;;;5.42;100.00;99523.66;5151116;27;20280;-79
2022/03/11 01:49:09;;;;;;;18.23;10.43;;;;;;;5.31;100.00;99515.31;5145431;27;20194;-79
2022/03/11 01:51:40;;;;;;;16.83;10.30;;;;;;;5.32;100.00;99523.13;5148630;27;20189;-79
2022/03/11 01:54:10;;;;;;;19.57;11.00;;;;;;;5.37;100.00;99521.16;5147222;27;20208;-79
2022/03/11 01:56:40;;;;;;;17.83;11.10;;;;;;;5.20;100.00;99518.28;5151549;27;20437;-79
2022/03/11 01:59:11;;;;;;;17.37;10.63;;;;;;;5.18;100.00;99515.72;5146206;27;20208;-79
2022/03/11 02:01:39;;;;;;;20.97;12.17;;;;;;;5.19;100.00;99519.22;5148907;27;20205;-79
2022/03/11 02:04:08;;;;;;;17.13;10.77;;;;;;;5.27;100.00;99516.31;5142585;27;20648;-79
2022/03/11 02:06:36;;;;;;;18.10;12.03;;;;;;;5.34;100.00;99507.31;5150220;27;20260;-79
2022/03/11 02:09:06;;;;;;;19.83;12.17;;;;;;;5.36;100.00;99510.72;5152364;27;20186;-79
2022/03/11 02:11:36;;;;;;;15.17;9.80;;;;;;;5.21;100.00;99509.53;5146143;27;20277;-79
2022/03/11 02:14:05;;;;;;;19.53;11.47;;;;;;;5.24;100.00;99511.19;5148487;27;20197;-79
2022/03/11 02:16:37;;;;;;;16.37;11.17;;;;;;;5.14;100.00;99506.28;5149021;27;20216;-79
2022/03/11 02:19:06;;;;;;;19.50;11.37;;;;;;;4.94;100.00;99508.75;5145476;27;20644;-79
2022/03/11 02:21:41;;;;;;;21.13;12.57;;;;;;;4.75;100.00;99507.69;5151867;27;20250;-79
2022/03/11 02:24:14;;;;;;;18.73;12.10;;;;;;;4.75;100.00;99510.31;5151985;27;20186;-79
2022/03/11 02:26:44;;;;;;;19.77;12.57;;;;;;;4.74;100.00;99501.59;5088495;28;20192;-79
2022/03/11 02:29:13;;;;;;;21.50;12.17;;;;;;;4.73;100.00;99510.38;5086570;28;20210;-79
2022/03/11 02:31:44;;;;;;;20.20;12.03;;;;;;;4.52;100.00;99516.31;5088357;28;20721;-79
2022/03/11 02:34:13;;;;;;;22.17;13.27;;;;;;;4.47;100.00;99506.00;5090857;28;20196;-79
2022/03/11 02:36:43;;;;;;;20.17;12.37;;;;;;;4.25;100.00;99505.88;5085239;28;20223;-79
2022/03/11 02:39:14;;;;;;;19.30;12.93;;;;;;;4.48;100.00;99499.84;5087566;28;20626;-79
2022/03/11 02:41:45;;;;;;;23.10;13.70;;;;;;;4.40;100.00;99503.63;5084864;28;20192;-79
2022/03/11 02:44:13;;;;;;;21.93;13.03;;;;;;;4.46;100.00;99493.81;5098826;27;20189;-79
2022/03/11 02:46:41;;;;;;;21.13;13.33;;;;;;;4.36;100.00;99489.78;5144084;27;20227;-79
2022/03/11 02:49:10;;;;;;;21.73;12.57;;;;;;;4.32;100.00;99496.00;5150322;27;20253;-79
2022/03/11 02:51:38;;;;;;;20.50;12.87;;;;;;;4.31;100.00;99495.16;5146991;27;20182;-79
2022/03/11 02:54:08;;;;;;;19.60;13.63;;;;;;;4.14;100.00;99492.22;5144428;27;20194;-79
2022/03/11 02:56:38;;;;;;;20.63;12.80;;;;;;;4.22;100.00;99484.97;5151757;27;20224;-79
2022/03/11 02:59:07;;;;;;;22.63;13.63;;;;;;;4.13;100.00;99498.38;5145736;27;20201;-79
2022/03/11 03:01:35;;;;;;;20.57;13.07;;;;;;;4.20;100.00;99492.03;5052016;27;20189;-79
2022/03/11 03:04:04;;;;;;;23.73;14.07;;;;;;;4.21;100.00;99491.13;5100772;28;20195;-79
2022/03/11 03:06:33;;;;;;;21.43;13.80;;;;;;;4.25;100.00;99487.50;5096444;28;20191;-79
2022/03/11 03:09:01;;;;;;;22.17;13.30;;;;;;;4.28;100.00;99491.78;5103665;28;20198;-79
2022/03/11 03:11:30;;;;;;;19.93;13.63;;;;;;;4.28;100.00;99490.03;5100651;28;20198;-79
2022/03/11 03:13:59;;;;;;;23.20;13.30;;;;;;;4.32;100.00;99486.38;5109983;28;20505;-79
2022/03/11 03:16:28;;;;;;;24.47;14.87;;;;;;;4.35;100.00;99480.19;5103095;28;20215;-79
2022/03/11 03:18:57;;;;;;;24.57;14.57;;;;;;;4.38;100.00;99479.22;5099440;28;20657;-79
2022/03/11 03:21:27;;;;;;;25.27;14.90;;;;;;;4.40;100.00;99483.50;5106932;27;20190;-79
2022/03/11 03:23:55;;;;;;;25.60;15.20;;;;;;;4.39;100.00;99483.56;5150878;27;20288;-79
2022/03/11 03:26:24;;;;;;;24.07;14.63;;;;;;;4.21;100.00;99485.03;5148869;27;20200;-78
2022/03/11 03:28:52;;;;;;;25.27;14.23;;;;;;;4.22;100.00;99474.47;5147547;27;20193;-79
2022/03/11 03:31:22;;;;;;;25.10;14.73;;;;;;;4.09;100.00;99474.94;5143764;27;20193;-79
2022/03/11 03:33:51;;;;;;;25.30;15.17;;;;;;;4.12;100.00;99478.31;5151240;27;20262;-79
2022/03/11 03:36:21;;;;;;;25.67;15.47;;;;;;;3.89;100.00;99472.97;5145752;27;20216;-78
2022/03/11 03:38:50;;;;;;;23.93;15.37;;;;;;;3.78;100.00;99477.69;5148747;27;20201;-79
2022/03/11 03:41:18;;;;;;;22.83;15.47;;;;;;;3.90;100.00;99467.69;5143251;27;20224;-79
2022/03/11 03:43:47;;;;;;;28.40;15.90;;;;;;;3.87;100.00;99464.31;5141205;27;20198;-79
2022/03/11 03:46:16;;;;;;;27.23;15.30;;;;;;;4.00;100.00;99468.25;5153327;27;20243;-79
2022/03/11 03:48:47;;;;;;;27.70;15.90;;;;;;;3.83;100.00;99462.66;5145772;27;20246;-79
2022/03/11 03:51:15;;;;;;;27.33;16.57;;;;;;;3.92;100.00;99465.84;5150346;27;20193;-79
2022/03/11 03:53:43;;;;;;;24.87;15.73;;;;;;;3.71;100.00;99470.03;5151998;27;20581;-78
2022/03/11 03:56:12;;;;;;;26.47;16.33;;;;;;;3.78;100.00;99464.59;5143459;27;20201;-79
2022/03/11 03:58:40;;;;;;;29.93;16.47;;;;;;;3.67;100.00;99464.94;5150249;27;20186;-79
2022/03/11 04:01:10;;;;;;;26.83;16.27;;;;;;;3.63;100.00;99463.31;5147476;27;20196;-79
2022/03/11 04:03:39;;;;;;;30.03;17.07;;;;;;;3.60;100.00;99468.66;5150047;27;20189;-79
2022/03/11 04:06:09;;;;;;;27.87;17.47;;;;;;;3.48;100.00;99459.41;5149847;27;20197;-79
2022/03/11 04:08:37;;;;;;;27.13;16.33;;;;;;;3.47;100.00;99462.91;5154335;27;20265;-78
2022/03/11 04:11:06;;;;;;;28.13;17.23;;;;;;;3.44;100.00;99458.63;5148872;27;20190;-79
2022/03/11 04:13:34;;;;;;;25.83;17.07;;;;;;;3.36;100.00;99465.00;5149332;27;20190;-79
2022/03/11 04:16:05;;;;;;;28.70;16.70;;;;;;;3.59;100.00;99469.56;5153770;27;20200;-79
2022/03/11 04:18:34;;;;;;;25.67;16.80;;;;;;;3.55;100.00;99458.28;5143283;27;20205;-79
2022/03/11 04:21:02;;;;;;;27.97;16.77;;;;;;;3.47;100.00;99459.41;5148698;27;20250;-79
2022/03/11 04:23:32;;;;;;;27.47;16.47;;;;;;;3.39;100.00;99455.31;5151604;27;20202;-79
2022/03/11 04:26:00;;;;;;;25.73;16.40;;;;;;;3.43;100.00;99443.81;5153238;27;20200;-79
2022/03/11 04:28:31;;;;;;;29.80;17.30;;;;;;;3.47;100.00;99449.81;5146935;27;20202;-79
2022/03/11 04:30:59;;;;;;;26.73;16.43;;;;;;;3.52;100.00;99452.31;5141478;27;20194;-79
2022/03/11 04:33:28;;;;;;;26.43;16.10;;;;;;;3.55;100.00;99450.44;5147327;27;20272;-79
2022/03/11 04:35:58;;;;;;;26.60;16.57;;;;;;;3.45;100.00;99449.00;5148887;27;20198;-79
2022/03/11 04:38:27;;;;;;;29.03;16.57;;;;;;;3.41;100.00;99450.88;5151226;27;20209;-79
2022/03/11 04:40:57;;;;;;;27.40;16.63;;;;;;;3.53;100.00;99454.00;5154324;27;20205;-79
2022/03/11 04:43:27;;;;;;;25.67;16.33;;;;;;;3.37;100.00;99456.22;5147215;27;20204;-79
2022/03/11 04:45:56;;;;;;;25.53;16.30;;;;;;;3.39;100.00;99455.31;5144914;27;20218;-79
2022/03/11 04:48:24;;;;;;;27.67;16.97;;;;;;;3.39;100.00;99447.44;5153729;27;20193;-79
2022/03/11 04:50:53;;;;;;;29.30;17.90;;;;;;;3.30;100.00;99441.63;5149874;27;20194;-79
2022/03/11 04:53:21;;;;;;;29.20;18.17;;;;;;;3.25;100.00;99441.75;5148221;27;20198;-79
2022/03/11 04:55:50;;;;;;;27.37;15.83;;;;;;;3.20;100.00;99442.81;5152891;27;20238;-79
2022/03/11 04:58:20;;;;;;;30.00;16.90;;;;;;;3.16;100.00;99455.09;5152406;27;20214;-79
2022/03/11 05:00:59;;;;;;;29.87;18.47;;;;;;;3.19;100.00;99451.56;5153696;27;20193;-79
2022/03/11 05:03:27;;;;;;;29.03;17.67;;;;;;;3.06;100.00;99454.50;5149067;27;20186;-79
2022/03/11 05:05:57;;;;;;;30.70;18.73;;;;;;;3.07;100.00;99452.75;5149513;27;20596;-79
2022/03/11 05:08:26;;;;;;;28.83;16.97;;;;;;;3.06;100.00;99449.28;5089353;28;20200;-80
2022/03/11 05:10:54;;;;;;;30.07;17.83;;;;;;;3.05;100.00;99446.72;5085813;28;20196;-79
2022/03/11 05:13:24;;;;;;;28.83;17.33;;;;;;;3.06;100.00;99456.28;5085168;28;20203;-79
2022/03/11 05:15:52;;;;;;;27.10;17.03;;;;;;;3.03;100.00;99453.75;5083493;28;20204;-79
2022/03/11 05:18:21;;;;;;;28.70;17.33;;;;;;;2.94;100.00;99451.41;5082198;28;20208;-79
2022/03/11 05:20:51;;;;;;;29.30;17.37;;;;;;;2.94;100.00;99448.78;5092441;28;20191;-79
2022/03/11 05:23:20;;;;;;;27.23;15.90;;;;;;;2.86;100.00;99447.22;5084127;28;20199;-79
2022/03/11 05:25:49;;;;;;;30.50;16.50;;;;;;;2.79;100.00;99448.31;5084476;28;20760;-79
2022/03/11 05:28:18;;;;;;;42.37;23.73;;;;;;;2.86;100.00;99449.00;5089347;28;20195;-79
2022/03/11 05:30:48;;;;;;;37.53;23.17;;;;;;;2.79;100.00;99443.06;5088233;28;20203;-79
2022/03/11 05:33:16;;;;;;;33.30;18.53;;;;;;;2.71;100.00;99447.69;5079697;28;20250;-79
2022/03/11 05:35:44;;;;;;;28.57;15.47;;;;;;;2.75;100.00;99446.69;5089714;28;20284;-79
2022/03/11 05:38:13;;;;;;;26.20;16.53;;;;;;;2.68;100.00;99454.72;5089199;28;20219;-79
2022/03/11 05:40:41;;;;;;;24.97;16.17;;;;;;;2.75;100.00;99451.91;5145717;27;20255;-79
2022/03/11 05:43:09;;;;;;;24.40;15.50;;;;;;;2.80;100.00;99449.19;5149123;27;20197;-79
2022/03/11 05:45:39;;;;;;;28.43;17.37;;;;;;;2.81;100.00;99448.28;5148292;27;20222;-79
2022/03/11 05:48:10;;;;;;;26.50;16.13;;;;;;;2.78;100.00;99450.97;5150376;27;20194;-79
2022/03/11 05:50:38;;;;;;;25.60;16.77;;;;;;;2.90;100.00;99441.94;5150122;27;20777;-79
2022/03/11 05:53:07;;;;;;;27.30;15.90;;;;;;;2.85;100.00;99447.28;5143899;27;20211;-79
2022/03/11 05:55:35;;;;;;;24.73;15.97;;;;;;;2.77;100.00;99463.19;5148277;27;20201;-79
2022/03/11 05:58:04;;;;;;;26.77;16.30;;;;;;;2.71;100.00;99452.91;5147977;27;20211;-79
2022/03/11 06:00:32;;;;;;;22.57;14.90;;;;;;;2.79;100.00;99457.91;5148456;27;20192;-78
2022/03/11 06:03:01;;;;;;;21.77;13.90;;;;;;;2.55;100.00;99451.59;5147628;27;20214;-79
2022/03/11 06:05:31;;;;;;;27.93;15.37;;;;;;;2.58;100.00;99456.75;5152303;27;20268;-79
2022/03/11 06:08:01;;;;;;;35.17;15.33;;;;;;;2.62;100.00;99444.47;5151270;27;20266;-78
2022/03/11 06:10:30;;;;;;;30.73;14.83;;;;;;;2.64;100.00;99459.19;5144223;27;20217;-79
2022/03/11 06:12:58;;;;;;;30.33;14.97;;;;;;;2.56;100.00;99455.94;5147019;27;20201;-79
2022/03/11 06:15:26;;;;;;;25.13;14.50;;;;;;;2.70;100.00;99466.88;5142644;27;20185;-79
2022/03/11 06:17:55;;;;;;;24.37;14.00;;;;;;;2.47;100.00;99464.00;5143803;27;20221;-79
2022/03/11 06:20:25;;;;;;;24.90;14.10;;;;;;;2.61;100.00;99474.13;5096231;27;20205;-79
2022/03/11 06:22:55;;;;;;;24.70;14.07;;;;;;;2.77;100.00;99468.41;5145374;27;20217;-79
2022/03/11 06:25:24;;;;;;;29.80;14.40;;;;;;;2.80;100.00;99470.09;5084925;28;20203;-79
2022/03/11 06:27:53;;;;;;;23.87;13.33;;;;;;;2.94;100.00;99461.88;5047695;28;20200;-79
2022/03/11 06:30:22;;;;;;;23.43;14.03;;;;;;;3.02;100.00;99463.38;5041330;28;20393;-80
2022/03/11 06:32:51;;;;;;;26.37;13.03;;;;;;;2.92;100.00;99464.53;5048635;28;20196;-79
2022/03/11 06:35:19;;;;;;;21.43;13.47;;;;;;;2.99;100.00;99468.69;5041847;28;20197;-79
2022/03/11 06:37:50;;;;;;;21.63;12.37;;;;;;;2.95;100.00;99469.66;5043921;28;20217;-79
2022/03/11 06:40:21;;;;;;;23.23;13.00;;;;;;;3.02;100.00;99476.44;4994924;28;20194;-78
2022/03/11 06:42:53;;;;;;;21.33;13.03;;;;;;;2.96;100.00;99473.13;5008235;28;20281;-79
2022/03/11 06:45:22;;;;;;;22.23;12.53;;;;;;;2.98;100.00;99473.94;5001117;28;20215;-79
2022/03/11 06:47:51;;;;;;;21.77;12.50;;;;;;;3.08;100.00;99468.41;4909900;29;20218;-79
2022/03/11 06:50:19;;;;;;;18.47;12.37;;;;;;;3.17;100.00;99469.91;4942115;28;20251;-79
2022/03/11 06:52:48;;;;;;;17.23;10.97;;;;;;;3.25;99.73;99467.06;4971181;28;20202;-79
2022/03/11 06:55:18;;;;;;;18.87;11.43;;;;;;;3.30;98.92;99467.81;4971995;28;20196;-79
2022/03/11 06:57:48;;;;;;;18.87;11.87;;;;;;;3.40;98.11;99453.53;4865855;29;20197;-79
2022/03/11 07:00:17;;;;;;;23.03;12.33;;;;;;;3.34;97.34;99454.56;4965364;28;20198;-79
2022/03/11 07:02:49;;;;;;;19.23;11.83;;;;;;;3.42;97.83;99449.97;4972065;28;20251;-79
2022/03/11 07:05:19;;;;;;;16.37;11.27;;;;;;;3.48;97.97;99448.06;4984536;28;20193;-79
2022/03/11 07:07:47;;;;;;;19.07;11.57;;;;;;;3.55;97.40;99445.19;5044526;28;20185;-79
2022/03/11 07:10:18;;;;;;;17.27;11.17;;;;;;;3.65;96.21;99443.16;5046907;28;20201;-79
2022/03/11 07:12:49;;;;;;;18.80;11.87;;;;;;;3.58;96.53;99445.13;4991254;28;20286;-79
2022/03/11 07:15:17;;;;;;;17.23;11.03;;;;;;;3.68;95.18;99449.16;4976873;28;20222;-79
2022/03/11 07:17:48;;;;;;;18.50;10.33;;;;;;;3.79;92.42;99446.22;4990583;28;20352;-79
2022/03/11 07:20:16;;;;;;;19.93;11.20;;;;;;;3.83;91.43;99449.56;4988781;28;20199;-79
2022/03/11 07:22:47;;;;;;;15.20;10.10;;;;;;;3.64;89.36;99451.91;4987463;28;20214;-79
2022/03/11 07:25:16;;;;;;;17.50;10.53;;;;;;;3.78;87.81;99454.13;4981229;28;20191;-79
2022/03/11 07:27:46;;;;;;;16.57;9.87;;;;;;;3.82;84.93;99455.72;4994913;28;20223;-79
2022/03/11 07:30:16;;;;;;;17.00;10.53;;;;;;;3.78;83.61;99468.06;4981795;28;20203;-79
2022/03/11 07:32:46;;;;;;;15.90;10.10;;;;;;;3.84;82.94;99460.00;4955786;28;20214;-79
2022/03/11 07:35:14;;;;;;;15.57;10.13;;;;;;;3.78;83.44;99460.22;4981391;28;20195;-79
2022/03/11 07:37:43;;;;;;;14.20;9.83;;;;;;;3.90;82.86;99456.34;5005290;28;20198;-79
2022/03/11 07:40:13;;;;;;;15.53;10.10;;;;;;;3.84;81.11;99464.38;5011553;28;20214;-79
2022/03/11 07:42:43;;;;;;;16.10;10.40;;;;;;;3.97;79.25;99469.19;5012890;28;20197;-79
2022/03/11 07:45:16;;;;;;;15.23;9.73;;;;;;;3.91;78.19;99464.16;5075926;28;20226;-79
2022/03/11 07:47:44;;;;;;;15.20;10.00;;;;;;;3.90;77.98;99467.69;5093178;28;20194;-79
2022/03/11 07:50:13;;;;;;;19.60;10.40;;;;;;;4.15;77.20;99464.25;5121875;27;20215;-79
2022/03/11 07:52:42;;;;;;;14.73;9.20;;;;;;;4.08;75.47;99454.88;5176297;27;20250;-79
2022/03/11 07:55:12;;;;;;;14.27;8.83;;;;;;;4.08;75.65;99463.59;5171979;27;20204;-79
2022/03/11 07:57:40;;;;;;;13.00;9.03;;;;;;;4.17;74.83;99460.69;5126461;27;20189;-79
2022/03/11 08:00:13;;;;;;;15.77;8.67;;;;;;;4.27;74.02;99461.25;5164641;27;20212;-80
2022/03/11 08:02:43;;;;;;;14.40;9.20;;;;;;;4.25;73.17;99461.28;5172035;27;20271;-80
2022/03/11 08:05:14;;;;;;;13.13;8.60;;;;;;;4.24;71.77;99458.69;5168692;27;20191;-80
2022/03/11 08:07:48;;;;;;;15.90;9.10;;;;;;;4.38;70.91;99461.72;5178686;27;20193;-79
2022/03/11 08:10:18;;;;;;;13.67;8.97;;;;;;;4.39;71.27;99447.69;5170965;27;20237;-79
2022/03/11 08:12:48;;;;;;;13.83;9.03;;;;;;;4.43;69.79;99454.53;5178467;27;20244;-79
2022/03/11 08:15:17;;;;;;;13.57;8.37;;;;;;;4.56;70.12;99452.38;5177103;27;20189;-80
2022/03/11 08:17:48;;;;;;;14.47;9.10;;;;;;;4.60;68.60;99438.22;5176056;27;20197;-79
2022/03/11 08:20:16;;;;;;;16.77;10.47;;;;;;;4.72;68.38;99450.06;5173738;27;20208;-79
2022/03/11 08:22:45;;;;;;;25.40;16.00;;;;;;;4.77;68.22;99456.84;5171285;27;20199;-79
2022/03/11 08:25:13;;;;;;;17.40;11.83;;;;;;;4.92;68.43;99454.59;5171304;27;20288;-79
2022/03/11 08:27:43;;;;;;;14.07;8.97;;;;;;;4.91;68.57;99451.09;5172649;27;20189;-79
2022/03/11 08:30:12;;;;;;;13.23;8.50;;;;;;;5.09;67.75;99452.19;5172994;27;20212;-79
2022/03/11 08:32:41;;;;;;;15.20;9.03;;;;;;;5.10;66.23;99459.16;5175025;27;20207;-79
2022/03/11 08:35:15;;;;;;;13.37;8.20;;;;;;;5.13;65.32;99464.31;5172218;27;20225;-79
2022/03/11 08:37:44;;;;;;;13.47;8.43;;;;;;;5.25;63.84;99449.88;5169968;27;20189;-79
2022/03/11 08:40:14;;;;;;;12.93;8.77;;;;;;;5.31;62.53;99454.91;5173691;27;20220;-79
2022/03/11 08:42:44;;;;;;;13.87;8.23;;;;;;;5.42;61.77;99450.09;5169982;27;20189;-79
2022/03/11 08:45:12;;;;;;;13.97;8.57;;;;;;;5.35;60.28;99459.13;5170962;27;20226;-80
2022/03/11 08:47:45;;;;;;;11.77;8.00;;;;;;;5.31;60.32;99441.78;5171005;27;20207;-79
2022/03/11 08:50:15;;;;;;;14.13;7.87;;;;;;;5.49;59.28;99443.66;5171663;27;20234;-79
2022/03/11 08:52:43;;;;;;;14.80;8.47;;;;;;;5.49;59.04;99442.81;5173577;27;20233;-79
2022/03/11 08:55:13;;;;;;;13.93;7.80;;;;;;;5.80;59.02;99430.19;5173984;27;20208;-79
2022/03/11 08:57:48;;;;;;;14.47;8.43;;;;;;;6.02;58.59;99427.56;5174598;27;20192;-79
2022/03/11 09:00:19;;;;;;;11.07;7.50;;;;;;;5.89;58.09;99426.34;5174669;27;20215;-79
2022/03/11 09:02:48;;;;;;;12.67;7.80;;;;;;;5.92;56.77;99419.22;5171969;27;20643;-79
2022/03/11 09:05:20;;;;;;;11.70;7.17;;;;;;;6.04;56.48;99425.72;5171965;27;20272;-79
2022/03/11 09:07:51;;;;;;;12.03;7.27;;;;;;;5.88;55.78;99427.25;5171732;27;20216;-79
2022/03/11 09:10:20;;;;;;;11.77;8.00;;;;;;;6.11;56.11;99414.06;5172641;27;20196;-79
2022/03/11 09:12:48;;;;;;;13.63;7.47;;;;;;;6.15;55.56;99420.88;5168990;27;20681;-79
2022/03/11 09:15:17;;;;;;;15.27;7.37;;;;;;;6.40;55.51;99410.19;5163741;27;20196;-78
2022/03/11 09:17:46;;;;;;;14.13;7.27;;;;;;;6.56;54.43;99413.88;5173457;27;20188;-79
2022/03/11 09:20:15;;;;;;;13.90;8.40;;;;;;;6.60;53.30;99409.31;5169215;27;20224;-79
2022/03/11 09:22:57;;;;;;;12.30;7.40;;;;;;;6.70;52.67;99405.38;5177454;27;20193;-79
2022/03/11 09:25:25;;;;;;;11.37;7.33;;;;;;;6.91;52.51;99395.66;5174335;27;20193;-79
2022/03/11 09:27:54;;;;;;;10.87;7.67;;;;;;;6.95;51.47;99397.25;5171178;27;20207;-79
2022/03/11 09:30:22;;;;;;;10.53;7.47;;;;;;;6.96;50.84;99406.00;5172521;27;20197;-80
2022/03/11 09:32:51;;;;;;;10.50;7.37;;;;;;;6.76;50.58;99404.25;5173463;27;20185;-79
2022/03/11 09:35:19;;;;;;;11.70;7.70;;;;;;;6.95;50.55;99401.63;5173390;27;20185;-79
2022/03/11 09:37:48;;;;;;;10.80;7.20;;;;;;;7.05;50.54;99401.16;5167596;27;20197;-78
2022/03/11 09:40:17;;;;;;;11.00;7.67;;;;;;;6.98;49.51;99402.34;5085663;28;20269;-80
2022/03/11 09:42:46;;;;;;;12.37;7.57;;;;;;;7.14;50.04;99398.09;5085184;28;20195;-79
2022/03/11 09:45:15;;;;;;;13.50;7.50;;;;;;;7.47;49.65;99393.03;5080761;28;20231;-79
2022/03/11 09:47:44;;;;;;;11.43;7.87;;;;;;;7.56;49.13;99391.72;5091988;28;20275;-79
2022/03/11 09:50:14;;;;;;;10.23;7.07;;;;;;;7.77;47.68;99394.25;5086041;28;20303;-79
2022/03/11 09:52:43;;;;;;;12.03;6.90;;;;;;;7.78;47.18;99381.00;5087541;28;20194;-79
2022/03/11 09:55:11;;;;;;;15.47;7.00;;;;;;;7.84;47.83;99377.22;5089771;28;20188;-79
2022/03/11 09:57:42;;;;;;;14.70;7.50;;;;;;;8.00;47.02;99379.00;5096981;27;20192;-79
2022/03/11 10:00:11;;;;;;;17.03;7.87;;;;;;;8.06;47.08;99385.75;5161577;27;20212;-79
2022/03/11 10:02:42;;;;;;;13.67;8.03;;;;;;;8.29;46.22;99377.53;5168812;27;20275;-79
2022/03/11 10:05:11;;;;;;;11.20;7.20;;;;;;;8.35;45.84;99380.81;5168750;27;20196;-79
2022/03/11 10:08:05;;;;;;;10.33;7.10;;;;;;;8.53;44.65;99383.38;5174505;27;20192;-79
2022/03/11 10:10:35;;;;;;;11.17;7.20;;;;;;;8.41;44.38;99376.09;5170528;27;20193;-79
2022/03/11 10:13:12;;;;;;;12.67;7.37;;;;;;;8.43;44.52;99379.50;5169417;27;20193;-79
2022/03/11 10:15:42;;;;;;;10.53;6.70;;;;;;;8.57;44.18;99386.69;5164135;27;20220;-79
2022/03/11 10:18:16;;;;;;;10.47;6.83;;;;;;;8.48;44.56;99366.06;5171651;27;20188;-79
2022/03/11 10:20:52;;;;;;;11.90;7.87;;;;;;;8.71;44.25;99365.72;5168096;27;20212;-79
2022/03/11 10:23:23;;;;;;;10.97;6.70;;;;;;;8.73;43.69;99369.13;5122604;27;20218;-78
2022/03/11 10:26:03;;;;;;;13.87;7.47;;;;;;;8.62;44.15;99357.41;5174769;27;20180;-79
2022/03/11 10:28:33;;;;;;;12.07;7.10;;;;;;;8.76;43.30;99357.53;5170743;27;20185;-79
2022/03/11 10:31:09;;;;;;;11.93;7.57;;;;;;;8.97;43.22;99351.09;5166313;27;20218;-79
2022/03/11 10:33:38;;;;;;;10.73;7.27;;;;;;;9.33;43.26;99337.63;5172707;27;20239;-79
2022/03/11 10:36:11;;;;;;;10.03;6.73;;;;;;;9.12;42.70;99341.47;5169575;27;20182;-78
2022/03/11 10:38:46;;;;;;;9.60;7.03;;;;;;;9.61;42.70;99339.56;5169869;27;20253;-79
2022/03/11 10:41:17;;;;;;;12.70;7.33;;;;;;;9.51;42.06;99343.69;5169363;27;20227;-79
2022/03/11 10:43:48;;;;;;;12.20;7.80;;;;;;;9.70;41.87;99346.13;5169175;27;20297;-79
2022/03/11 10:46:17;;;;;;;10.57;7.07;;;;;;;9.67;41.76;99344.53;5167145;27;20236;-79
2022/03/11 10:48:47;;;;;;;11.60;7.10;;;;;;;9.99;41.82;99341.81;5169967;27;20271;-79
2022/03/11 10:51:26;;;;;;;10.50;7.13;;;;;;;9.85;40.47;99337.31;5172397;27;20193;-79
2022/03/11 10:53:56;;;;;;;11.37;6.73;;;;;;;10.19;41.31;99333.53;5166154;27;20201;-79
2022/03/11 10:56:29;;;;;;;10.30;7.47;;;;;;;10.18;40.55;99337.13;5164863;27;20199;-79
2022/03/11 10:59:00;;;;;;;10.20;7.00;;;;;;;9.87;40.24;99332.78;5172593;27;20272;-79
2022/03/11 11:01:36;;;;;;;9.87;7.20;;;;;;;10.17;40.24;99326.63;5167528;27;20238;-80
2022/03/11 11:04:08;;;;;;;13.47;6.90;;;;;;;10.19;40.05;99337.97;5172397;27;20209;-80
2022/03/11 11:06:37;;;;;;;13.23;7.23;;;;;;;10.39;39.73;99312.97;5167835;27;20197;-79
2022/03/11 11:09:08;;;;;;;13.77;7.57;;;;;;;10.44;39.16;99313.56;5161207;27;20189;-79
2022/03/11 11:11:36;;;;;;;13.37;7.17;;;;;;;10.27;39.81;99320.72;5156808;27;20632;-79
2022/03/11 11:14:09;;;;;;;12.33;7.10;;;;;;;10.78;39.38;99314.97;5175046;27;20188;-79
2022/03/11 11:16:40;;;;;;;10.50;7.33;;;;;;;10.73;39.07;99320.56;5163858;27;20189;-80
2022/03/11 11:19:11;;;;;;;11.47;7.40;;;;;;;10.26;38.83;99316.38;5177080;27;20197;-79
2022/03/11 11:21:44;;;;;;;11.27;7.30;;;;;;;10.34;38.59;99309.78;5176920;27;20209;-79
2022/03/11 11:24:14;;;;;;;11.97;7.63;;;;;;;10.60;39.47;99295.78;5176465;27;20210;-80
2022/03/11 11:26:46;;;;;;;11.03;7.00;;;;;;;11.02;38.50;99294.03;5172937;27;20192;-80
2022/03/11 11:29:20;;;;;;;10.43;7.50;;;;;;;10.99;38.03;99296.88;5175407;27;20201;-80
2022/03/11 11:31:52;;;;;;;10.63;6.90;;;;;;;11.18;37.77;99294.75;5173977;27;20196;-79
2022/03/11 11:34:25;;;;;;;10.23;7.37;;;;;;;11.17;37.34;99293.91;5179959;27;20182;-79
2022/03/11 11:36:54;;;;;;;10.77;7.07;;;;;;;11.35;37.48;99299.81;5174712;27;20204;-79